createdAt,value
2022-08-29T00:03:20.050Z,47.88
2022-08-29T00:08:25.688Z,47.58
2022-08-29T00:13:31.039Z,48.23
2022-08-29T00:18:36.773Z,48.07
2022-08-29T00:23:44.414Z,47.63
2022-08-29T00:28:49.747Z,48.20
2022-08-29T00:33:56.916Z,47.30
2022-08-29T00:39:03.142Z,47.17
2022-08-29T00:44:09.140Z,47.03
2022-08-29T00:49:34.134Z,46.87
2022-08-29T00:54:42.523Z,47.50
2022-08-29T00:59:49.361Z,47.47
2022-08-29T01:04:55.134Z,46.63
2022-08-29T01:10:00.563Z,47.10
2022-08-29T01:15:10.885Z,46.73
2022-08-29T01:20:36.950Z,46.83
2022-08-29T01:25:45.468Z,46.83
2022-08-29T01:31:05.769Z,46.57
2022-08-29T01:36:14.243Z,47.03
2022-08-29T01:41:20.824Z,46.53
2022-08-29T01:46:34.782Z,46.77
2022-08-29T01:51:40.314Z,47.33
2022-08-29T01:56:48.944Z,47.13
2022-08-29T02:01:57.729Z,46.53
2022-08-29T02:07:03.662Z,46.73
2022-08-29T02:12:09.527Z,46.27
2022-08-29T02:17:15.386Z,46.70
2022-08-29T02:22:20.409Z,46.17
2022-08-29T02:27:27.588Z,46.20
2022-08-29T02:32:33.422Z,45.73
2022-08-29T02:37:39.996Z,45.67
2022-08-29T02:42:45.516Z,46.23
2022-08-29T02:47:52.331Z,45.83
2022-08-29T02:52:57.786Z,45.77
2022-08-29T02:58:03.550Z,45.87
2022-08-29T03:03:09.437Z,46.43
2022-08-29T03:08:15.697Z,46.65
2022-08-29T03:13:20.760Z,47.07
2022-08-29T03:18:25.932Z,46.33
2022-08-29T03:23:31.576Z,46.30
2022-08-29T03:28:37.366Z,46.83
2022-08-29T03:33:42.908Z,46.73
2022-08-29T03:38:48.826Z,46.20
2022-08-29T03:43:55.859Z,45.93
2022-08-29T03:49:00.866Z,45.60
2022-08-29T03:54:08.004Z,45.63
2022-08-29T03:59:14.638Z,44.76
2022-08-29T04:04:39.141Z,45.63
2022-08-29T04:09:45.408Z,46.10
2022-08-29T04:14:50.430Z,45.70
2022-08-29T04:19:56.047Z,46.40
2022-08-29T04:25:01.355Z,45.60
2022-08-29T04:30:09.648Z,47.33
2022-08-29T04:35:16.653Z,46.13
2022-08-29T04:40:23.072Z,45.17
2022-08-29T04:45:29.352Z,45.78
2022-08-29T04:50:34.887Z,45.90
2022-08-29T04:55:40.222Z,46.53
2022-08-29T05:00:47.586Z,46.07
2022-08-29T05:06:04.494Z,46.37
2022-08-29T05:11:13.292Z,45.73
2022-08-29T05:16:19.541Z,46.87
2022-08-29T05:26:38.301Z,46.30
2022-08-29T05:31:44.542Z,46.80
2022-08-29T05:36:50.823Z,46.40
2022-08-29T05:41:57.851Z,46.57
2022-08-29T05:47:08.351Z,47.30
2022-08-29T05:52:16.036Z,48.05
2022-08-29T05:57:23.557Z,47.70
2022-08-29T06:02:29.774Z,47.65
2022-08-29T06:07:35.808Z,48.63
2022-08-29T06:12:40.693Z,48.60
2022-08-29T06:17:46.021Z,49.03
2022-08-29T06:22:51.075Z,48.67
2022-08-29T06:27:56.890Z,48.50
2022-08-29T06:33:03.221Z,48.75
2022-08-29T06:38:12.092Z,48.90
2022-08-29T06:43:16.232Z,48.20
2022-08-29T06:48:21.524Z,48.80
2022-08-29T06:53:32.320Z,48.63
2022-08-29T06:58:35.558Z,49.80
2022-08-29T07:03:42.257Z,49.17
2022-08-29T07:08:54.942Z,49.23
2022-08-29T07:13:59.261Z,49.07
2022-08-29T07:19:06.808Z,49.25
2022-08-29T07:24:12.478Z,49.47
2022-08-29T07:29:21.550Z,49.30
2022-08-29T07:34:27.282Z,49.85
2022-08-29T07:39:33.159Z,49.57
2022-08-29T07:49:43.260Z,52.50
2022-08-29T07:54:49.522Z,50.13
2022-08-29T07:59:55.267Z,49.57
2022-08-29T08:05:00.765Z,49.40
2022-08-29T08:10:07.599Z,49.70
2022-08-29T08:15:14.508Z,49.65
2022-08-29T08:20:20.125Z,50.12
2022-08-29T08:25:26.265Z,50.37
2022-08-29T08:30:35.504Z,53.42
2022-08-29T08:35:42.302Z,50.25
2022-08-29T08:40:50.972Z,50.03
2022-08-29T08:45:57.354Z,50.23
2022-08-29T08:51:05.830Z,49.65
2022-08-29T08:56:16.833Z,50.17
2022-08-29T09:01:34.643Z,49.95
2022-08-29T09:07:04.058Z,50.57
2022-08-29T09:12:25.113Z,50.17
2022-08-29T09:17:37.198Z,50.33
2022-08-29T09:22:46.150Z,50.43
2022-08-29T09:27:52.242Z,50.17
2022-08-29T09:33:04.416Z,50.47
2022-08-29T09:38:23.505Z,50.33
2022-08-29T09:43:45.121Z,51.30
2022-08-29T09:49:02.521Z,50.87
2022-08-29T09:54:20.490Z,50.60
2022-08-29T09:59:32.107Z,50.53
2022-08-29T10:04:42.960Z,50.63
2022-08-29T10:10:09.983Z,51.80
2022-08-29T10:15:39.543Z,50.80
2022-08-29T10:20:29.046Z,51.43
2022-08-29T10:25:41.602Z,50.50
2022-08-29T10:31:02.700Z,51.00
2022-08-29T10:36:11.368Z,51.03
2022-08-29T10:41:19.549Z,51.37
2022-08-29T10:46:51.432Z,50.73
2022-08-29T10:52:19.431Z,51.37
2022-08-29T10:57:39.926Z,51.60
2022-08-29T11:03:01.248Z,51.20
2022-08-29T11:08:13.913Z,51.50
2022-08-29T11:13:25.935Z,50.70
2022-08-29T11:18:34.920Z,51.83
2022-08-29T11:23:44.196Z,51.47
2022-08-29T11:28:53.039Z,51.30
2022-08-29T11:34:05.707Z,51.50
2022-08-29T11:39:26.330Z,51.70
2022-08-29T11:44:41.854Z,51.83
2022-08-29T11:49:50.476Z,51.68
2022-08-29T11:55:16.413Z,51.70
2022-08-29T12:00:39.962Z,51.58
2022-08-29T12:05:51.176Z,51.47
2022-08-29T12:10:58.851Z,51.53
2022-08-29T12:16:12.249Z,51.07
2022-08-29T12:21:40.261Z,51.73
2022-08-29T12:26:47.426Z,51.97
2022-08-29T12:32:18.090Z,51.43
2022-08-29T12:37:11.091Z,51.83
2022-08-29T12:42:40.500Z,51.53
2022-08-29T12:47:52.220Z,51.20
2022-08-29T12:53:04.015Z,51.60
2022-08-29T12:58:13.317Z,51.87
2022-08-29T13:03:23.068Z,51.63
2022-08-29T13:08:32.573Z,51.93
2022-08-29T13:13:38.506Z,51.57
2022-08-29T13:19:00.601Z,51.90
2022-08-29T13:24:04.993Z,51.70
2022-08-29T13:29:13.921Z,51.95
2022-08-29T13:34:20.967Z,51.63
2022-08-29T13:39:41.472Z,51.80
2022-08-29T13:44:49.293Z,52.15
2022-08-29T13:50:00.785Z,51.90
2022-08-29T13:55:13.362Z,52.10
2022-08-29T14:00:32.465Z,51.57
2022-08-29T14:05:28.820Z,51.70
2022-08-29T14:10:36.235Z,51.68
2022-08-29T14:15:43.019Z,51.28
2022-08-29T14:20:48.824Z,52.10
2022-08-29T14:25:56.187Z,51.68
2022-08-29T14:31:03.329Z,51.50
2022-08-29T14:36:09.934Z,51.25
2022-08-29T14:41:16.032Z,51.27
2022-08-29T14:46:22.810Z,51.27
2022-08-29T14:51:29.245Z,50.67
2022-08-29T14:56:51.426Z,51.30
2022-08-29T15:01:44.487Z,51.17
2022-08-29T15:06:51.474Z,51.13
2022-08-29T15:11:56.927Z,50.95
2022-08-29T15:17:02.456Z,51.47
2022-08-29T15:22:08.481Z,51.17
2022-08-29T15:27:15.392Z,51.18
2022-08-29T15:32:20.649Z,51.05
2022-08-29T15:37:26.742Z,50.60
2022-08-29T15:42:33.319Z,50.80
2022-08-29T15:47:39.473Z,50.83
2022-08-29T15:57:52.442Z,50.90
2022-08-29T16:02:57.808Z,50.90
2022-08-29T16:08:03.142Z,49.93
2022-08-29T16:13:08.651Z,50.30
2022-08-29T16:18:14.990Z,50.00
2022-08-29T16:23:21.047Z,50.58
2022-08-29T16:28:28.870Z,50.00
2022-08-29T16:33:34.472Z,50.20
2022-08-29T16:38:40.439Z,49.40
2022-08-29T16:48:53.133Z,49.77
2022-08-29T16:53:59.650Z,49.93
2022-08-29T16:59:05.820Z,49.67
2022-08-29T17:04:14.733Z,49.40
2022-08-29T17:09:22.887Z,49.60
2022-08-29T17:14:28.403Z,50.08
2022-08-29T17:19:34.720Z,49.37
2022-08-29T17:24:40.630Z,51.37
2022-08-29T17:29:47.271Z,50.63
2022-08-29T17:34:52.798Z,50.35
2022-08-29T17:39:59.031Z,49.33
2022-08-29T17:45:06.003Z,49.87
2022-08-29T17:50:11.710Z,49.27
2022-08-29T17:55:18.364Z,49.03
2022-08-29T18:00:25.767Z,49.30
2022-08-29T18:05:31.477Z,48.90
2022-08-29T18:10:38.477Z,48.90
2022-08-29T18:15:43.713Z,48.83
2022-08-29T18:20:49.146Z,49.27
2022-08-29T18:25:54.721Z,49.38
2022-08-29T18:31:00.803Z,49.33
2022-08-29T18:36:10.520Z,49.03
2022-08-29T18:41:15.790Z,48.63
2022-08-29T18:46:21.495Z,49.20
2022-08-29T18:51:27.635Z,49.33
2022-08-29T18:56:34.652Z,51.70
2022-08-29T19:01:42.634Z,52.20
2022-08-29T19:06:48.969Z,53.60
2022-08-29T19:11:56.268Z,50.90
2022-08-29T19:17:02.968Z,51.80
2022-08-29T19:22:10.958Z,49.98
2022-08-29T19:27:39.712Z,49.67
2022-08-29T19:32:23.967Z,50.23
2022-08-29T19:37:31.796Z,49.63
2022-08-29T19:42:41.773Z,49.50
2022-08-29T19:47:50.441Z,49.60
2022-08-29T19:52:56.774Z,49.43
2022-08-29T19:58:02.996Z,49.42
2022-08-29T20:03:09.733Z,49.30
2022-08-29T20:08:15.775Z,49.37
2022-08-29T20:13:22.760Z,48.90
2022-08-29T20:18:29.153Z,48.68
2022-08-29T20:23:36.224Z,48.50
2022-08-29T20:28:43.647Z,49.53
2022-08-29T20:33:50.237Z,49.70
2022-08-29T20:44:03.393Z,49.53
2022-08-29T20:49:11.615Z,49.07
2022-08-29T20:54:20.687Z,48.93
2022-08-29T20:59:26.915Z,48.38
2022-08-29T21:04:51.394Z,47.27
2022-08-29T21:09:57.396Z,48.20
2022-08-29T21:15:03.631Z,48.43
2022-08-29T21:20:10.100Z,48.40
2022-08-29T21:25:16.604Z,48.23
2022-08-29T21:30:23.472Z,47.67
2022-08-29T21:35:29.501Z,47.30
2022-08-29T21:40:35.561Z,47.10
2022-08-29T21:45:42.758Z,47.27
2022-08-29T21:50:51.668Z,48.30
2022-08-29T21:55:57.588Z,49.50
2022-08-29T22:06:09.143Z,47.60
2022-08-29T22:11:18.942Z,47.07
2022-08-29T22:16:30.278Z,46.70
2022-08-29T22:21:41.887Z,46.70
2022-08-29T22:26:48.634Z,46.67
2022-08-29T22:31:56.633Z,46.70
2022-08-29T22:37:02.013Z,47.60
2022-08-29T22:42:07.074Z,47.80
2022-08-29T22:47:12.787Z,47.80
2022-08-29T22:52:19.429Z,47.94
2022-08-29T23:02:30.441Z,47.27
2022-08-29T23:07:36.605Z,47.77
2022-08-29T23:12:42.365Z,47.47
2022-08-29T23:17:49.039Z,48.52
2022-08-29T23:22:56.489Z,48.70
2022-08-29T23:28:02.651Z,47.95
2022-08-29T23:33:07.644Z,48.47
2022-08-29T23:38:15.778Z,47.90
2022-08-29T23:43:22.708Z,47.83
2022-08-29T23:48:27.882Z,47.30
2022-08-29T23:53:34.906Z,47.63
2022-08-29T23:58:40.998Z,47.80
